METAR Data

Data at: 0422 UTC 20 Oct 2018

METAR for:KSAN (San Diego Intl Arpt, CA, US)
Text:KSAN 200351Z 00000KT 10SM CLR 23/04 A2996 RMK AO2 SLP146 T02330044
Temperature: 23.3°C ( 74°F)
Dewpoint: 4.4°C ( 40°F) [RH = 29%]
Pressure (altimeter):29.96 inches Hg (1014.6 mb) [Sea level pressure: 1014.6 mb]
Winds:calm
Visibility:10 or more sm (16+ km)
Ceiling:at least 12,000 feet AGL
Clouds:sky clear below 12,000 feet AGL